createdAt,value
2019-02-26T00:01:59.774Z,8.30
2019-02-26T00:04:32.711Z,8.30
2019-02-26T00:07:03.783Z,8.30
2019-02-26T00:09:35.293Z,8.30
2019-02-26T00:12:07.315Z,8.20
2019-02-26T00:14:37.839Z,8.20
2019-02-26T00:17:11.169Z,8.20
2019-02-26T00:19:42.259Z,8.20
2019-02-26T00:22:13.797Z,8.20
2019-02-26T00:24:46.584Z,8.20
2019-02-26T00:27:17.378Z,8.20
2019-02-26T00:29:51.333Z,8.20
2019-02-26T00:32:22.629Z,8.20
2019-02-26T00:34:58.021Z,8.10
2019-02-26T00:37:30.592Z,8.10
2019-02-26T00:40:00.762Z,8.10
2019-02-26T00:42:33.776Z,8.10
2019-02-26T00:45:07.884Z,8.10
2019-02-26T00:47:41.052Z,8.10
2019-02-26T00:50:11.951Z,8.00
2019-02-26T00:52:44.267Z,8.00
2019-02-26T00:55:14.974Z,8.00
2019-02-26T00:57:45.709Z,8.00
2019-02-26T01:00:16.464Z,8.00
2019-02-26T01:02:47.260Z,8.00
2019-02-26T01:05:17.969Z,8.00
2019-02-26T01:07:51.504Z,7.90
2019-02-26T01:10:23.661Z,7.90
2019-02-26T01:12:56.491Z,7.90
2019-02-26T01:15:28.270Z,7.90
2019-02-26T01:18:00.909Z,7.90
2019-02-26T01:20:31.993Z,7.80
2019-02-26T01:23:03.929Z,7.80
2019-02-26T01:25:38.239Z,7.80
2019-02-26T01:28:06.768Z,7.80
2019-02-26T01:30:37.261Z,7.80
2019-02-26T01:33:09.774Z,7.80
2019-02-26T01:35:40.767Z,7.80
2019-02-26T01:38:12.589Z,7.80
2019-02-26T01:40:46.084Z,7.70
2019-02-26T01:43:16.204Z,7.70
2019-02-26T01:45:48.613Z,7.70
2019-02-26T01:48:19.817Z,7.70
2019-02-26T01:50:52.173Z,7.70
2019-02-26T01:53:23.723Z,7.70
2019-02-26T01:55:54.419Z,7.60
2019-02-26T01:58:25.078Z,7.60
2019-02-26T02:00:56.017Z,7.60
2019-02-26T02:03:28.030Z,7.60
2019-02-26T02:05:59.411Z,7.60
2019-02-26T02:08:33.147Z,7.60
2019-02-26T02:11:04.846Z,7.50
2019-02-26T02:13:38.609Z,7.50
2019-02-26T02:23:56.184Z,7.50
2019-02-26T02:26:27.035Z,7.50
2019-02-26T02:28:57.883Z,7.40
2019-02-26T02:31:31.401Z,7.40
2019-02-26T02:34:00.949Z,7.40
2019-02-26T02:36:32.310Z,7.40
2019-02-26T02:39:02.905Z,7.40
2019-02-26T02:41:36.069Z,7.40
2019-02-26T02:44:06.733Z,7.40
2019-02-26T02:46:39.809Z,7.40
2019-02-26T02:49:13.256Z,7.30
2019-02-26T02:51:44.091Z,7.30
2019-02-26T02:54:16.200Z,7.30
2019-02-26T02:56:47.256Z,7.30
2019-02-26T02:59:17.924Z,7.30
2019-02-26T03:01:51.773Z,7.20
2019-02-26T03:04:22.185Z,7.20
2019-02-26T03:06:55.527Z,7.20
2019-02-26T03:09:27.860Z,7.20
2019-02-26T03:11:58.435Z,7.20
2019-02-26T03:14:33.056Z,7.20
2019-02-26T03:17:05.671Z,7.20
2019-02-26T03:19:38.451Z,7.10
2019-02-26T03:22:09.790Z,7.10
2019-02-26T03:24:40.645Z,7.10
2019-02-26T03:27:11.679Z,7.10
2019-02-26T03:29:42.372Z,7.10
2019-02-26T03:32:13.366Z,7.10
2019-02-26T03:34:44.449Z,7.10
2019-02-26T03:37:15.383Z,7.10
2019-02-26T03:39:45.915Z,7.00
2019-02-26T03:42:20.644Z,7.00
2019-02-26T03:44:49.488Z,7.00
2019-02-26T03:47:20.086Z,7.00
2019-02-26T03:49:50.658Z,7.00
2019-02-26T03:52:21.366Z,7.00
2019-02-26T03:54:51.999Z,7.00
2019-02-26T03:57:24.811Z,7.00
2019-02-26T03:59:55.475Z,7.00
2019-02-26T04:02:26.175Z,7.00
2019-02-26T04:04:57.910Z,6.90
2019-02-26T04:07:30.263Z,7.00
2019-02-26T04:10:01.543Z,7.00
2019-02-26T04:12:36.062Z,7.00
2019-02-26T04:15:04.901Z,6.90
2019-02-26T04:17:36.823Z,6.90
2019-02-26T04:20:09.040Z,6.90
2019-02-26T04:22:43.180Z,6.90
2019-02-26T04:25:32.941Z,6.90
2019-02-26T04:28:21.989Z,6.90
2019-02-26T04:31:47.112Z,6.90
2019-02-26T04:35:02.402Z,6.90
2019-02-26T04:38:12.635Z,6.90
2019-02-26T04:41:22.765Z,6.90
2019-02-26T04:44:40.302Z,6.80
2019-02-26T04:47:13.987Z,6.80
2019-02-26T04:49:46.531Z,6.80
2019-02-26T04:52:17.606Z,6.80
2019-02-26T04:54:48.314Z,6.80
2019-02-26T04:57:20.852Z,6.80
2019-02-26T04:59:51.654Z,6.80
2019-02-26T05:02:22.377Z,6.80
2019-02-26T05:04:53.194Z,6.70
2019-02-26T05:07:23.762Z,6.70
2019-02-26T05:09:56.889Z,6.70
2019-02-26T05:12:30.333Z,6.70
2019-02-26T05:14:59.892Z,6.70
2019-02-26T05:17:33.291Z,6.70
2019-02-26T05:20:04.277Z,6.70
2019-02-26T05:22:35.556Z,6.70
2019-02-26T05:25:07.437Z,6.70
2019-02-26T05:27:40.010Z,6.70
2019-02-26T05:30:13.952Z,6.70
2019-02-26T05:32:43.767Z,6.60
2019-02-26T05:35:18.073Z,6.60
2019-02-26T05:37:48.838Z,6.60
2019-02-26T05:40:22.094Z,6.60
2019-02-26T05:42:53.356Z,6.60
2019-02-26T05:45:26.345Z,6.60
2019-02-26T05:47:58.801Z,6.60
2019-02-26T05:50:30.202Z,6.60
2019-02-26T05:53:04.699Z,6.60
2019-02-26T05:55:34.727Z,6.60
2019-02-26T05:58:07.423Z,6.60
2019-02-26T06:00:38.343Z,6.60
2019-02-26T06:03:10.447Z,6.60
2019-02-26T06:05:45.787Z,6.60
2019-02-26T06:08:14.141Z,6.60
2019-02-26T06:10:44.838Z,6.60
2019-02-26T06:13:15.771Z,6.50
2019-02-26T06:15:46.415Z,6.50
2019-02-26T06:18:17.288Z,6.50
2019-02-26T06:20:50.930Z,6.60
2019-02-26T06:23:23.198Z,6.60
2019-02-26T06:25:55.975Z,6.60
2019-02-26T06:28:26.831Z,6.60
2019-02-26T06:30:57.602Z,6.60
2019-02-26T06:33:31.874Z,6.60
2019-02-26T06:36:04.183Z,6.60
2019-02-26T06:38:35.858Z,6.60
2019-02-26T06:41:06.394Z,6.60
2019-02-26T06:43:39.612Z,6.60
2019-02-26T06:46:11.816Z,6.60
2019-02-26T06:48:41.770Z,6.60
2019-02-26T06:51:12.812Z,6.60
2019-02-26T06:53:47.099Z,6.70
2019-02-26T06:56:18.009Z,6.70
2019-02-26T06:58:49.006Z,6.70
2019-02-26T07:01:19.608Z,6.80
2019-02-26T07:03:50.526Z,6.80
2019-02-26T07:06:25.019Z,6.80
2019-02-26T07:08:53.890Z,6.80
2019-02-26T07:11:28.000Z,6.80
2019-02-26T07:14:00.604Z,6.90
2019-02-26T07:16:31.138Z,6.90
2019-02-26T07:19:03.905Z,7.00
2019-02-26T07:21:34.302Z,7.10
2019-02-26T07:24:04.764Z,7.10
2019-02-26T07:26:36.712Z,7.20
2019-02-26T07:29:12.244Z,7.20
2019-02-26T07:31:42.491Z,7.30
2019-02-26T07:34:15.656Z,7.30
2019-02-26T07:36:47.958Z,7.40
2019-02-26T07:39:20.905Z,7.40
2019-02-26T07:41:54.248Z,7.50
2019-02-26T07:44:26.060Z,7.60
2019-02-26T07:46:58.842Z,7.60
2019-02-26T07:49:29.279Z,7.70
2019-02-26T07:52:02.689Z,7.80
2019-02-26T07:54:34.516Z,7.90
2019-02-26T07:57:05.240Z,8.00
2019-02-26T07:59:36.938Z,8.00
2019-02-26T08:02:09.585Z,8.10
2019-02-26T08:04:41.781Z,8.10
2019-02-26T08:07:12.824Z,8.20
2019-02-26T08:09:43.271Z,8.20
2019-02-26T08:12:13.824Z,8.30
2019-02-26T08:14:47.822Z,8.40
2019-02-26T08:17:18.838Z,8.40
2019-02-26T08:19:49.513Z,8.40
2019-02-26T08:22:20.310Z,8.40
2019-02-26T08:24:52.699Z,8.40
2019-02-26T08:27:23.450Z,8.40
2019-02-26T08:29:56.401Z,8.40
2019-02-26T08:32:28.634Z,8.40
2019-02-26T08:35:00.137Z,8.40
2019-02-26T08:37:31.098Z,8.40
2019-02-26T08:40:01.932Z,8.40
2019-02-26T08:42:33.058Z,8.50
2019-02-26T08:45:03.973Z,8.50
2019-02-26T08:47:35.122Z,8.50
2019-02-26T08:50:07.226Z,8.50
2019-02-26T08:52:38.819Z,8.60
2019-02-26T08:55:11.172Z,8.60
2019-02-26T08:57:42.900Z,8.60
2019-02-26T09:00:16.940Z,8.70
2019-02-26T09:02:50.563Z,8.70
2019-02-26T09:05:20.170Z,8.70
2019-02-26T09:07:52.376Z,8.80
2019-02-26T09:10:23.437Z,8.80
2019-02-26T09:12:54.473Z,8.90
2019-02-26T09:15:25.223Z,8.90
2019-02-26T09:17:55.751Z,9.00
2019-02-26T09:20:26.572Z,9.10
2019-02-26T09:22:59.509Z,9.20
2019-02-26T09:25:31.454Z,9.40
2019-02-26T09:28:02.155Z,9.70
2019-02-26T09:30:35.822Z,9.90
2019-02-26T09:33:09.068Z,10.30
2019-02-26T09:35:38.990Z,11.30
2019-02-26T09:38:09.756Z,13.60
2019-02-26T09:40:41.587Z,16.90
2019-02-26T09:43:12.895Z,20.80
2019-02-26T09:45:45.905Z,24.50
2019-02-26T09:48:17.511Z,27.70
2019-02-26T09:50:49.350Z,30.10
2019-02-26T09:53:20.056Z,32.10
2019-02-26T09:55:50.966Z,33.60
2019-02-26T09:58:23.513Z,34.80
2019-02-26T10:00:54.257Z,35.80
2019-02-26T10:03:26.785Z,36.70
2019-02-26T10:05:57.930Z,37.30
2019-02-26T10:08:30.518Z,38.00
2019-02-26T10:11:04.764Z,38.70
2019-02-26T10:13:35.451Z,39.10
2019-02-26T10:16:06.934Z,36.50
2019-02-26T10:18:38.659Z,33.80
2019-02-26T10:21:12.066Z,32.50
2019-02-26T10:23:42.058Z,32.50
2019-02-26T10:26:14.210Z,32.80
2019-02-26T10:28:46.815Z,33.30
2019-02-26T10:31:17.682Z,35.10
2019-02-26T10:33:50.768Z,36.60
2019-02-26T10:36:20.971Z,37.80
2019-02-26T10:38:53.170Z,38.70
2019-02-26T10:41:24.759Z,39.10
2019-02-26T10:43:55.554Z,39.60
2019-02-26T10:46:26.257Z,39.80
2019-02-26T10:48:57.343Z,40.00
2019-02-26T10:51:28.311Z,40.10
2019-02-26T10:53:59.867Z,40.00
2019-02-26T10:56:36.757Z,39.90
2019-02-26T10:59:06.820Z,39.80
2019-02-26T11:01:36.258Z,39.80
2019-02-26T11:04:07.062Z,39.70
2019-02-26T11:06:41.757Z,39.60
2019-02-26T11:09:18.068Z,39.50
2019-02-26T11:11:46.906Z,39.20
2019-02-26T11:14:19.469Z,38.50
2019-02-26T11:16:50.284Z,37.20
2019-02-26T11:19:20.998Z,35.50
2019-02-26T11:21:55.562Z,34.00
2019-02-26T11:24:25.791Z,32.90
2019-02-26T11:26:57.229Z,32.20
2019-02-26T11:29:28.660Z,31.50
2019-02-26T11:32:01.738Z,31.00
2019-02-26T11:34:33.449Z,30.60
2019-02-26T11:37:08.848Z,30.30
2019-02-26T11:39:37.613Z,30.20
2019-02-26T11:42:10.387Z,30.10
2019-02-26T11:44:40.526Z,30.20
2019-02-26T11:47:13.522Z,30.20
2019-02-26T11:49:46.191Z,30.20
2019-02-26T11:52:19.604Z,30.20
2019-02-26T11:54:51.603Z,30.30
2019-02-26T11:57:22.730Z,30.50
2019-02-26T11:59:53.384Z,30.50
2019-02-26T12:02:27.994Z,30.50
2019-02-26T12:04:57.557Z,30.50
2019-02-26T12:07:29.775Z,30.50
2019-02-26T12:10:07.203Z,30.40
2019-02-26T12:12:36.836Z,30.20
2019-02-26T12:15:10.075Z,30.00
2019-02-26T12:17:41.218Z,29.80
2019-02-26T12:20:14.770Z,29.60
2019-02-26T12:22:47.937Z,29.40
2019-02-26T12:25:17.773Z,29.10
2019-02-26T12:27:48.803Z,29.00
2019-02-26T12:30:20.761Z,29.00
2019-02-26T12:32:54.451Z,28.70
2019-02-26T12:35:24.175Z,28.40
2019-02-26T12:37:56.645Z,28.10
2019-02-26T12:40:27.187Z,27.80
2019-02-26T12:42:57.898Z,27.50
2019-02-26T12:45:31.026Z,27.20
2019-02-26T12:48:01.144Z,27.00
2019-02-26T12:50:36.042Z,26.80
2019-02-26T12:53:05.130Z,26.60
2019-02-26T12:55:38.206Z,26.40
2019-02-26T12:58:07.899Z,26.20
2019-02-26T13:00:41.944Z,26.10
2019-02-26T13:03:12.588Z,26.00
2019-02-26T13:05:45.659Z,25.80
2019-02-26T13:08:19.034Z,25.60
2019-02-26T13:10:54.429Z,25.50
2019-02-26T13:13:20.798Z,25.30
2019-02-26T13:15:51.618Z,25.10
2019-02-26T13:18:22.366Z,25.00
2019-02-26T13:20:59.466Z,24.80
2019-02-26T13:23:25.574Z,24.70
2019-02-26T13:25:56.423Z,24.50
2019-02-26T13:28:29.736Z,24.40
2019-02-26T13:31:02.315Z,24.20
2019-02-26T13:33:36.879Z,24.10
2019-02-26T13:36:04.984Z,24.00
2019-02-26T13:38:44.827Z,24.00
2019-02-26T13:41:29.022Z,23.90
2019-02-26T13:43:42.431Z,23.80
2019-02-26T13:46:13.236Z,23.70
2019-02-26T13:48:44.047Z,23.50
2019-02-26T13:51:14.702Z,23.20
2019-02-26T13:53:45.547Z,23.00
2019-02-26T13:56:16.400Z,22.70
2019-02-26T13:58:47.763Z,22.40
2019-02-26T14:01:18.598Z,22.10
2019-02-26T14:03:49.110Z,21.80
2019-02-26T14:06:19.917Z,21.50
2019-02-26T14:08:50.798Z,21.30
2019-02-26T14:11:21.903Z,21.00
2019-02-26T14:13:52.797Z,20.70
2019-02-26T14:16:23.710Z,20.50
2019-02-26T14:18:54.739Z,20.20
2019-02-26T14:21:25.649Z,20.00
2019-02-26T14:23:56.407Z,19.70
2019-02-26T14:26:26.951Z,19.50
2019-02-26T14:28:57.776Z,19.30
2019-02-26T14:31:28.955Z,19.00
2019-02-26T14:34:00.068Z,18.90
2019-02-26T14:36:30.912Z,18.70
2019-02-26T14:39:01.830Z,18.50
2019-02-26T14:41:34.232Z,18.20
2019-02-26T14:44:04.943Z,18.10
2019-02-26T14:46:36.130Z,17.90
2019-02-26T14:49:07.016Z,17.70
2019-02-26T14:51:39.618Z,17.50
2019-02-26T14:54:10.529Z,17.30
2019-02-26T14:56:41.295Z,17.20
2019-02-26T14:59:12.999Z,17.00
2019-02-26T15:01:45.445Z,16.80
2019-02-26T15:04:15.954Z,16.70
2019-02-26T15:06:46.594Z,16.60
2019-02-26T15:09:18.546Z,16.40
2019-02-26T15:11:49.469Z,16.30
2019-02-26T15:14:19.902Z,16.10
2019-02-26T15:16:51.453Z,16.00
2019-02-26T15:19:22.061Z,15.90
2019-02-26T15:21:53.041Z,15.80
2019-02-26T15:24:23.571Z,15.70
2019-02-26T15:26:54.267Z,15.60
2019-02-26T15:29:24.775Z,15.50
2019-02-26T15:31:55.501Z,15.40
2019-02-26T15:34:28.052Z,15.20
2019-02-26T15:36:58.910Z,15.10
2019-02-26T15:39:29.529Z,15.00
2019-02-26T15:42:00.274Z,14.90
2019-02-26T15:44:30.714Z,14.80
2019-02-26T15:47:02.266Z,14.70
2019-02-26T15:49:35.804Z,14.50
2019-02-26T15:52:06.058Z,14.40
2019-02-26T15:54:37.602Z,14.30
2019-02-26T15:57:08.799Z,14.30
2019-02-26T15:59:39.559Z,14.20
2019-02-26T16:02:10.658Z,14.10
2019-02-26T16:04:41.574Z,14.00
2019-02-26T16:07:12.402Z,13.90
2019-02-26T16:09:43.038Z,13.80
2019-02-26T16:12:14.094Z,13.70
2019-02-26T16:14:44.619Z,13.70
2019-02-26T16:17:15.372Z,13.60
2019-02-26T16:19:46.279Z,13.50
2019-02-26T16:22:18.433Z,13.40
2019-02-26T16:24:49.562Z,13.30
2019-02-26T16:27:21.816Z,13.30
2019-02-26T16:29:52.724Z,13.20
2019-02-26T16:32:23.571Z,13.10
2019-02-26T16:34:54.679Z,13.10
2019-02-26T16:37:28.042Z,13.00
2019-02-26T16:39:58.683Z,12.90
2019-02-26T16:42:30.456Z,12.90
2019-02-26T16:45:01.675Z,12.80
2019-02-26T16:47:33.977Z,12.70
2019-02-26T16:50:12.661Z,12.70
2019-02-26T16:52:37.956Z,12.60
2019-02-26T16:55:13.641Z,12.60
2019-02-26T16:57:42.200Z,12.50
2019-02-26T17:00:16.283Z,12.50
2019-02-26T17:02:47.408Z,12.40
2019-02-26T17:05:18.398Z,12.40
2019-02-26T17:07:49.210Z,12.30
2019-02-26T17:10:20.541Z,12.30
2019-02-26T17:12:54.195Z,12.30
2019-02-26T17:15:27.060Z,12.20
2019-02-26T17:17:58.018Z,12.20
2019-02-26T17:20:28.568Z,12.20
2019-02-26T17:22:59.446Z,12.10
2019-02-26T17:25:30.943Z,12.10
2019-02-26T17:28:01.445Z,12.10
2019-02-26T17:30:32.083Z,12.10
2019-02-26T17:33:02.783Z,12.00
2019-02-26T17:35:33.417Z,12.00
2019-02-26T17:38:04.076Z,12.00
2019-02-26T17:40:36.639Z,12.00
2019-02-26T17:43:07.642Z,11.90
2019-02-26T17:45:39.594Z,11.90
2019-02-26T17:48:10.205Z,11.90
2019-02-26T17:50:43.374Z,11.80
2019-02-26T17:53:13.478Z,11.80
2019-02-26T17:55:44.213Z,11.80
2019-02-26T17:58:15.163Z,11.80
2019-02-26T18:00:48.734Z,11.70
2019-02-26T18:03:19.366Z,11.70
2019-02-26T18:05:51.467Z,11.70
2019-02-26T18:08:22.483Z,11.70
2019-02-26T18:10:53.548Z,11.70
2019-02-26T18:13:25.654Z,11.60
2019-02-26T18:15:57.292Z,11.60
2019-02-26T18:18:29.005Z,11.60
2019-02-26T18:20:59.722Z,11.60
2019-02-26T18:23:30.199Z,11.60
2019-02-26T18:26:01.330Z,11.60
2019-02-26T18:28:32.039Z,11.50
2019-02-26T18:31:04.582Z,11.50
2019-02-26T18:33:36.186Z,11.50
2019-02-26T18:36:07.231Z,11.50
2019-02-26T18:38:37.971Z,11.50
2019-02-26T18:41:08.784Z,11.50
2019-02-26T18:43:39.664Z,11.50
2019-02-26T18:46:11.198Z,11.40
2019-02-26T18:48:41.941Z,11.40
2019-02-26T18:51:12.876Z,11.40
2019-02-26T18:53:44.648Z,11.40
2019-02-26T18:56:16.754Z,11.40
2019-02-26T18:58:49.093Z,11.40
2019-02-26T19:01:19.911Z,11.30
2019-02-26T19:03:51.873Z,11.30
2019-02-26T19:06:24.669Z,11.30
2019-02-26T19:08:55.072Z,11.30
2019-02-26T19:11:26.148Z,11.30
2019-02-26T19:13:57.404Z,11.30
2019-02-26T19:16:28.198Z,11.20
2019-02-26T19:19:02.255Z,11.30
2019-02-26T19:21:33.046Z,11.20
2019-02-26T19:24:04.618Z,11.20
2019-02-26T19:26:35.869Z,11.20
2019-02-26T19:29:10.154Z,11.20
2019-02-26T19:31:43.269Z,11.20
2019-02-26T19:34:14.214Z,11.10
2019-02-26T19:36:45.901Z,11.10
2019-02-26T19:39:17.082Z,11.10
2019-02-26T19:41:48.046Z,11.10
2019-02-26T19:44:18.587Z,11.10
2019-02-26T19:46:50.151Z,11.10
2019-02-26T19:49:21.079Z,11.00
2019-02-26T19:51:51.903Z,11.00
2019-02-26T19:54:22.575Z,11.00
2019-02-26T19:56:54.630Z,11.00
2019-02-26T19:59:27.025Z,11.00
2019-02-26T20:01:59.078Z,11.00
2019-02-26T20:04:31.597Z,11.00
2019-02-26T20:07:02.842Z,11.00
2019-02-26T20:09:33.510Z,10.90
2019-02-26T20:12:04.128Z,10.90
2019-02-26T20:14:34.702Z,10.90
2019-02-26T20:17:14.428Z,10.90
2019-02-26T20:19:37.681Z,10.90
2019-02-26T20:22:08.250Z,10.90
2019-02-26T20:24:39.306Z,10.90
2019-02-26T20:27:11.043Z,10.90
2019-02-26T20:29:41.932Z,10.80
2019-02-26T20:32:12.761Z,10.80
2019-02-26T20:34:45.210Z,10.80
2019-02-26T20:37:15.976Z,10.80
2019-02-26T20:39:46.723Z,10.80
2019-02-26T20:42:17.614Z,10.80
2019-02-26T20:44:48.426Z,10.80
2019-02-26T20:47:19.573Z,10.80
2019-02-26T20:49:50.085Z,10.80
2019-02-26T20:52:21.235Z,10.70
2019-02-26T20:54:52.090Z,10.70
2019-02-26T20:57:22.987Z,10.70
2019-02-26T20:59:53.755Z,10.70
2019-02-26T21:02:25.774Z,10.70
2019-02-26T21:04:56.730Z,10.70
2019-02-26T21:07:27.550Z,10.70
2019-02-26T21:10:03.697Z,10.70
2019-02-26T21:12:31.101Z,10.70
2019-02-26T21:15:01.927Z,10.70
2019-02-26T21:17:32.757Z,10.60
2019-02-26T21:20:07.566Z,10.60
2019-02-26T21:22:36.214Z,10.60
2019-02-26T21:25:10.801Z,10.60
2019-02-26T21:27:44.309Z,10.60
2019-02-26T21:30:16.586Z,10.60
2019-02-26T21:32:47.802Z,10.60
2019-02-26T21:35:20.692Z,10.60
2019-02-26T21:37:51.066Z,10.50
2019-02-26T21:40:21.880Z,10.50
2019-02-26T21:42:52.705Z,10.50
2019-02-26T21:45:23.676Z,10.50
2019-02-26T21:47:54.492Z,10.50
2019-02-26T21:50:25.110Z,10.50
2019-02-26T21:52:59.760Z,10.50
2019-02-26T21:55:32.664Z,10.40
2019-02-26T21:58:00.902Z,10.40
2019-02-26T22:00:32.302Z,10.40
2019-02-26T22:03:03.182Z,10.40
2019-02-26T22:05:37.419Z,10.40
2019-02-26T22:08:07.426Z,10.40
2019-02-26T22:10:40.217Z,10.30
2019-02-26T22:13:11.363Z,10.30
2019-02-26T22:15:44.728Z,10.30
2019-02-26T22:18:15.175Z,10.30
2019-02-26T22:20:46.139Z,10.30
2019-02-26T22:23:17.182Z,10.30
2019-02-26T22:25:49.780Z,10.30
2019-02-26T22:28:20.360Z,10.20
2019-02-26T22:30:51.249Z,10.20
2019-02-26T22:33:21.994Z,10.20
2019-02-26T22:35:52.919Z,10.20
2019-02-26T22:38:23.602Z,10.20
2019-02-26T22:40:56.005Z,10.20
2019-02-26T22:43:26.484Z,10.10
2019-02-26T22:46:00.795Z,10.10
2019-02-26T22:48:29.587Z,10.10
2019-02-26T22:51:00.302Z,10.10
2019-02-26T22:53:36.424Z,10.10
2019-02-26T22:56:05.276Z,10.00
2019-02-26T22:58:37.791Z,10.00
2019-02-26T23:01:30.322Z,10.00
2019-02-26T23:03:56.742Z,10.00
2019-02-26T23:06:29.486Z,10.00
2019-02-26T23:09:01.191Z,9.90
2019-02-26T23:11:33.935Z,9.90
2019-02-26T23:14:05.541Z,9.90
2019-02-26T23:16:37.699Z,9.90
2019-02-26T23:19:08.870Z,9.90
2019-02-26T23:21:40.298Z,9.90
2019-02-26T23:24:11.131Z,9.90
2019-02-26T23:26:42.880Z,9.90
2019-02-26T23:29:14.114Z,9.80
2019-02-26T23:31:45.127Z,9.80
2019-02-26T23:34:17.219Z,9.80
2019-02-26T23:36:49.695Z,9.80
2019-02-26T23:39:21.862Z,9.80
2019-02-26T23:41:54.145Z,9.80
2019-02-26T23:44:24.887Z,9.80
2019-02-26T23:46:56.186Z,9.70
2019-02-26T23:49:26.814Z,9.70
2019-02-26T23:51:57.971Z,9.70
2019-02-26T23:54:28.886Z,9.70
2019-02-26T23:56:59.451Z,9.70
2019-02-26T23:59:30.136Z,9.70
